createdAt,value
2023-01-23T00:01:41.116Z,9.20
2023-01-23T00:04:08.291Z,7.70
2023-01-23T00:06:40.902Z,7.13
2023-01-23T00:09:11.048Z,8.15
2023-01-23T00:11:37.719Z,6.70
2023-01-23T00:14:04.431Z,6.38
2023-01-23T00:16:33.552Z,5.85
2023-01-23T00:19:00.207Z,7.40
2023-01-23T00:21:28.606Z,9.63
2023-01-23T00:23:57.051Z,8.80
2023-01-23T00:26:27.762Z,6.15
2023-01-23T00:28:57.197Z,7.45
2023-01-23T00:31:27.220Z,6.20
2023-01-23T00:33:56.585Z,6.97
2023-01-23T00:36:24.679Z,7.03
2023-01-23T00:38:54.165Z,7.72
2023-01-23T00:41:23.429Z,5.97
2023-01-23T00:46:24.651Z,7.18
2023-01-23T00:48:51.564Z,6.90
2023-01-23T00:51:20.818Z,8.57
2023-01-23T00:53:50.431Z,7.82
2023-01-23T00:56:16.999Z,8.02
2023-01-23T00:58:46.976Z,7.32
2023-01-23T01:01:17.800Z,7.95
2023-01-23T01:03:45.456Z,7.90
2023-01-23T01:06:12.442Z,7.78
2023-01-23T01:08:41.537Z,6.97
2023-01-23T01:11:08.964Z,7.07
2023-01-23T01:13:36.257Z,7.20
2023-01-23T01:16:03.164Z,5.97
2023-01-23T01:18:32.355Z,6.50
2023-01-23T01:21:01.501Z,6.03
2023-01-23T01:23:35.476Z,7.95
2023-01-23T01:26:02.430Z,5.50
2023-01-23T01:28:33.737Z,7.18
2023-01-23T01:31:06.533Z,6.10
2023-01-23T01:33:37.006Z,6.13
2023-01-23T01:36:06.407Z,6.32
2023-01-23T01:38:37.851Z,7.07
2023-01-23T01:41:05.262Z,7.35
2023-01-23T01:43:37.379Z,8.55
2023-01-23T01:46:19.346Z,5.82
2023-01-23T01:48:45.970Z,5.88
2023-01-23T01:51:50.775Z,5.97
2023-01-23T01:54:35.002Z,5.40
2023-01-23T01:57:23.343Z,7.00
2023-01-23T02:00:02.358Z,7.22
2023-01-23T02:02:33.797Z,5.72
2023-01-23T02:05:13.304Z,5.75
2023-01-23T02:07:55.225Z,7.53
2023-01-23T02:10:25.230Z,8.73
2023-01-23T02:12:53.219Z,7.38
2023-01-23T02:15:21.621Z,6.90
2023-01-23T02:17:53.863Z,6.97
2023-01-23T02:20:20.915Z,7.20
2023-01-23T02:22:57.759Z,6.05
2023-01-23T02:25:43.266Z,7.10
2023-01-23T02:28:16.392Z,7.25
2023-01-23T02:30:46.869Z,7.82
2023-01-23T02:33:19.881Z,6.10
2023-01-23T02:35:49.274Z,7.60
2023-01-23T02:38:20.170Z,7.78
2023-01-23T02:40:46.910Z,8.52
2023-01-23T02:43:19.172Z,7.82
2023-01-23T02:45:45.932Z,6.15
2023-01-23T02:48:13.057Z,6.93
2023-01-23T02:50:39.764Z,7.28
2023-01-23T02:53:06.732Z,7.35
2023-01-23T02:55:33.922Z,6.57
2023-01-23T02:58:19.624Z,5.72
2023-01-23T03:00:47.643Z,8.23
2023-01-23T03:03:16.011Z,8.80
2023-01-23T03:05:42.997Z,5.82
2023-01-23T03:08:09.767Z,6.57
2023-01-23T03:10:36.352Z,8.52
2023-01-23T03:13:07.510Z,6.38
2023-01-23T03:15:42.119Z,5.80
2023-01-23T03:18:09.053Z,6.53
2023-01-23T03:20:42.364Z,5.00
2023-01-23T03:23:09.459Z,5.85
2023-01-23T03:25:36.059Z,5.65
2023-01-23T03:28:02.918Z,6.68
2023-01-23T03:30:29.552Z,5.18
2023-01-23T03:32:58.458Z,5.43
2023-01-23T03:35:25.446Z,7.00
2023-01-23T03:37:52.364Z,4.65
2023-01-23T03:40:39.922Z,5.63
2023-01-23T03:43:09.315Z,6.03
2023-01-23T03:45:38.431Z,4.50
2023-01-23T03:48:05.434Z,5.72
2023-01-23T03:50:32.045Z,6.85
2023-01-23T03:52:58.835Z,5.38
2023-01-23T03:55:25.467Z,6.80
2023-01-23T03:57:52.237Z,6.13
2023-01-23T04:00:22.215Z,5.95
2023-01-23T04:02:49.070Z,4.72
2023-01-23T04:05:18.158Z,5.40
2023-01-23T04:07:47.170Z,6.28
2023-01-23T04:10:13.826Z,4.88
2023-01-23T04:12:43.251Z,5.25
2023-01-23T04:15:11.212Z,5.47
2023-01-23T04:17:42.180Z,5.15
2023-01-23T04:20:12.575Z,8.15
2023-01-23T04:22:39.372Z,5.28
2023-01-23T04:25:06.844Z,6.18
2023-01-23T04:27:36.100Z,5.35
2023-01-23T04:32:30.746Z,5.15
2023-01-23T04:34:59.394Z,4.72
2023-01-23T04:37:25.962Z,4.90
2023-01-23T04:39:52.664Z,6.05
2023-01-23T04:42:19.362Z,5.60
2023-01-23T04:44:48.699Z,7.10
2023-01-23T04:47:15.545Z,5.00
2023-01-23T04:49:44.463Z,4.70
2023-01-23T04:52:11.099Z,4.95
2023-01-23T04:54:37.717Z,4.88
2023-01-23T04:57:07.325Z,4.60
2023-01-23T04:59:34.142Z,4.65
2023-01-23T05:02:02.416Z,4.35
2023-01-23T05:04:31.337Z,5.55
2023-01-23T05:07:00.487Z,4.30
2023-01-23T05:09:27.177Z,4.93
2023-01-23T05:11:53.732Z,5.00
2023-01-23T05:14:22.451Z,4.78
2023-01-23T05:16:54.353Z,4.32
2023-01-23T05:19:20.901Z,5.28
2023-01-23T05:21:52.577Z,4.18
2023-01-23T05:24:19.187Z,6.55
2023-01-23T05:26:50.554Z,3.63
2023-01-23T05:29:17.302Z,4.47
2023-01-23T05:31:43.980Z,4.05
2023-01-23T05:34:10.564Z,4.35
2023-01-23T05:36:37.072Z,5.05
2023-01-23T05:39:08.372Z,5.93
2023-01-23T05:41:39.861Z,5.03
2023-01-23T05:44:06.430Z,4.95
2023-01-23T05:46:33.046Z,4.50
2023-01-23T05:49:01.964Z,4.82
2023-01-23T05:51:32.491Z,4.05
2023-01-23T05:54:05.449Z,4.97
2023-01-23T05:56:32.030Z,4.85
2023-01-23T05:59:00.886Z,4.10
2023-01-23T06:01:27.530Z,5.32
2023-01-23T06:03:57.243Z,4.32
2023-01-23T06:06:23.860Z,4.25
2023-01-23T06:08:50.428Z,4.30
2023-01-23T06:11:17.052Z,5.65
2023-01-23T06:13:45.978Z,3.72
2023-01-23T06:16:12.630Z,5.30
2023-01-23T06:18:39.312Z,4.47
2023-01-23T06:21:08.488Z,4.95
2023-01-23T06:23:35.223Z,4.40
2023-01-23T06:26:09.749Z,5.53
2023-01-23T06:28:38.931Z,5.35
2023-01-23T06:31:07.330Z,4.72
2023-01-23T06:33:33.958Z,6.20
2023-01-23T06:36:02.269Z,4.70
2023-01-23T06:38:31.563Z,4.97
2023-01-23T06:43:29.968Z,4.05
2023-01-23T06:45:59.287Z,4.07
2023-01-23T06:48:28.211Z,4.15
2023-01-23T06:50:54.768Z,6.28
2023-01-23T06:53:21.392Z,4.90
2023-01-23T06:55:52.827Z,5.43
2023-01-23T06:58:20.019Z,4.80
2023-01-23T07:00:48.859Z,4.63
2023-01-23T07:03:20.476Z,6.03
2023-01-23T07:05:54.294Z,4.78
2023-01-23T07:08:23.308Z,4.75
2023-01-23T07:10:52.689Z,4.65
2023-01-23T07:13:21.775Z,5.97
2023-01-23T07:15:50.983Z,4.63
2023-01-23T07:20:47.594Z,5.85
2023-01-23T07:23:19.126Z,5.45
2023-01-23T07:25:48.132Z,10.85
2023-01-23T07:28:14.730Z,4.90
2023-01-23T07:30:43.836Z,6.32
2023-01-23T07:33:11.930Z,5.03
2023-01-23T07:35:41.096Z,5.70
2023-01-23T07:38:09.869Z,5.90
2023-01-23T07:40:43.006Z,5.47
2023-01-23T07:43:12.137Z,6.18
2023-01-23T07:45:39.388Z,6.88
2023-01-23T07:48:08.430Z,5.25
2023-01-23T07:50:35.756Z,6.07
2023-01-23T07:53:03.450Z,5.15
2023-01-23T07:55:30.033Z,5.93
2023-01-23T07:57:56.849Z,4.88
2023-01-23T08:00:25.232Z,5.22
2023-01-23T08:05:21.525Z,5.70
2023-01-23T08:07:48.322Z,5.80
2023-01-23T08:10:20.107Z,7.57
2023-01-23T08:16:36.818Z,8.15
2023-01-23T08:21:32.791Z,4.90
2023-01-23T08:24:04.827Z,5.80
2023-01-23T08:26:34.373Z,7.38
2023-01-23T08:29:00.949Z,7.35
2023-01-23T08:31:27.839Z,5.70
2023-01-23T08:33:55.085Z,6.28
2023-01-23T08:36:22.116Z,7.68
2023-01-23T08:38:49.158Z,7.07
2023-01-23T08:41:18.287Z,7.50
2023-01-23T08:43:47.549Z,6.50
2023-01-23T08:48:41.151Z,8.35
2023-01-23T08:51:11.609Z,7.47
2023-01-23T08:53:38.564Z,7.00
2023-01-23T08:56:07.666Z,6.55
2023-01-23T08:58:37.071Z,8.00
2023-01-23T09:01:10.557Z,7.75
2023-01-23T09:03:39.916Z,5.50
2023-01-23T09:06:11.717Z,8.82
2023-01-23T09:08:40.583Z,8.43
2023-01-23T09:11:09.056Z,7.68
2023-01-23T09:13:38.888Z,8.52
2023-01-23T09:16:11.064Z,7.38
2023-01-23T09:18:38.245Z,7.38
2023-01-23T09:21:15.666Z,7.97
2023-01-23T09:23:45.618Z,8.40
2023-01-23T09:26:19.695Z,8.88
2023-01-23T09:28:48.692Z,7.55
2023-01-23T09:31:16.510Z,7.55
2023-01-23T09:33:43.126Z,6.57
2023-01-23T09:36:10.521Z,8.48
2023-01-23T09:38:37.176Z,6.32
2023-01-23T09:41:31.500Z,8.07
2023-01-23T09:44:07.417Z,7.20
2023-01-23T09:47:05.002Z,7.63
2023-01-23T09:49:58.613Z,7.95
2023-01-23T09:52:30.901Z,7.53
2023-01-23T09:55:12.458Z,7.55
2023-01-23T09:58:03.826Z,9.15
2023-01-23T10:00:32.467Z,7.63
2023-01-23T10:03:12.772Z,7.40
2023-01-23T10:05:49.240Z,6.75
2023-01-23T10:08:16.056Z,6.68
2023-01-23T10:10:53.486Z,7.55
2023-01-23T10:13:28.616Z,7.60
2023-01-23T10:16:10.415Z,8.88
2023-01-23T10:18:45.937Z,8.45
2023-01-23T10:21:27.032Z,8.07
2023-01-23T10:24:04.419Z,8.63
2023-01-23T10:26:42.448Z,8.05
2023-01-23T10:29:27.294Z,7.07
2023-01-23T10:31:57.453Z,6.90
2023-01-23T10:34:46.373Z,9.15
2023-01-23T10:37:31.398Z,6.30
2023-01-23T10:40:05.875Z,7.85
2023-01-23T10:42:35.084Z,7.38
2023-01-23T10:47:58.593Z,9.48
2023-01-23T10:50:40.171Z,7.70
2023-01-23T10:53:19.104Z,7.97
2023-01-23T10:55:49.439Z,11.93
2023-01-23T10:58:28.336Z,7.45
2023-01-23T11:00:54.926Z,8.55
2023-01-23T11:03:21.428Z,7.07
2023-01-23T11:06:01.461Z,7.60
2023-01-23T11:08:36.954Z,10.00
2023-01-23T11:11:15.764Z,9.48
2023-01-23T11:13:47.797Z,7.95
2023-01-23T11:16:20.841Z,8.48
2023-01-23T11:19:11.596Z,8.35
2023-01-23T11:21:58.372Z,9.38
2023-01-23T11:24:38.468Z,11.15
2023-01-23T11:27:15.378Z,7.20
2023-01-23T11:30:03.319Z,7.60
2023-01-23T11:32:35.498Z,7.75
2023-01-23T11:35:25.700Z,9.05
2023-01-23T11:37:56.766Z,5.88
2023-01-23T11:40:24.817Z,6.50
2023-01-23T11:42:53.900Z,5.63
2023-01-23T11:48:06.119Z,7.60
2023-01-23T11:50:55.006Z,5.68
2023-01-23T11:53:42.934Z,8.90
2023-01-23T11:56:24.318Z,6.15
2023-01-23T11:59:06.039Z,5.15
2023-01-23T12:02:02.528Z,5.63
2023-01-23T12:04:48.632Z,6.00
2023-01-23T12:07:25.424Z,7.80
2023-01-23T12:09:58.176Z,7.88
2023-01-23T12:12:27.869Z,6.60
2023-01-23T12:15:18.715Z,6.03
2023-01-23T12:18:18.869Z,7.97
2023-01-23T12:21:10.399Z,5.68
2023-01-23T12:23:42.614Z,5.78
2023-01-23T12:26:22.710Z,7.38
2023-01-23T12:29:01.760Z,7.55
2023-01-23T12:31:37.473Z,6.03
2023-01-23T12:34:27.975Z,6.07
2023-01-23T12:37:08.712Z,5.65
2023-01-23T12:40:26.002Z,7.53
2023-01-23T12:43:04.578Z,5.70
2023-01-23T12:45:35.904Z,8.52
2023-01-23T12:48:02.446Z,8.73
2023-01-23T12:50:41.053Z,5.32
2023-01-23T12:53:14.136Z,6.90
2023-01-23T12:55:50.358Z,6.82
2023-01-23T12:58:20.881Z,5.60
2023-01-23T13:01:06.322Z,8.30
2023-01-23T13:03:55.788Z,5.00
2023-01-23T13:07:01.132Z,6.68
2023-01-23T13:09:52.384Z,5.95
2023-01-23T13:12:24.688Z,5.60
2023-01-23T13:15:13.308Z,4.85
2023-01-23T13:17:47.218Z,6.00
2023-01-23T13:20:48.295Z,5.55
2023-01-23T13:23:35.309Z,7.35
2023-01-23T13:26:20.274Z,5.68
2023-01-23T13:28:54.611Z,3.75
2023-01-23T13:31:24.430Z,8.80
2023-01-23T13:33:52.186Z,5.03
2023-01-23T13:36:23.948Z,5.75
2023-01-23T13:39:17.888Z,7.32
2023-01-23T13:41:50.140Z,5.38
2023-01-23T13:44:19.080Z,6.55
2023-01-23T14:24:48.141Z,5.45
2023-01-23T14:27:36.765Z,4.90
2023-01-23T14:30:17.387Z,5.38
2023-01-23T14:32:47.473Z,5.13
2023-01-23T14:35:25.481Z,6.68
2023-01-23T14:38:00.232Z,5.47
2023-01-23T14:40:33.266Z,6.20
2023-01-23T14:43:08.932Z,6.13
2023-01-23T14:45:40.836Z,5.65
2023-01-23T14:48:14.771Z,5.20
2023-01-23T14:50:41.883Z,6.40
2023-01-23T14:53:16.476Z,5.00
2023-01-23T14:55:48.435Z,6.28
2023-01-23T14:58:22.622Z,5.25
2023-01-23T15:00:50.959Z,7.50
2023-01-23T15:03:43.340Z,4.13
2023-01-23T15:06:19.302Z,7.80
2023-01-23T15:08:48.994Z,7.80
2023-01-23T15:11:25.913Z,7.43
2023-01-23T15:13:55.395Z,8.10
2023-01-23T15:16:28.546Z,6.18
2023-01-23T15:19:06.687Z,9.15
2023-01-23T15:21:42.230Z,6.35
2023-01-23T15:24:11.923Z,6.00
2023-01-23T15:26:39.885Z,6.90
2023-01-23T15:29:09.495Z,7.43
2023-01-23T15:31:45.145Z,8.98
2023-01-23T15:34:17.294Z,7.15
2023-01-23T15:36:52.971Z,6.57
2023-01-23T15:39:22.187Z,7.22
2023-01-23T15:42:02.292Z,6.18
2023-01-23T15:44:31.171Z,8.20
2023-01-23T15:47:05.568Z,6.93
2023-01-23T15:49:35.334Z,6.72
2023-01-23T15:52:24.760Z,6.25
2023-01-23T15:54:58.168Z,5.57
2023-01-23T15:57:24.772Z,6.80
2023-01-23T15:59:53.655Z,6.57
2023-01-23T16:02:33.013Z,9.95
2023-01-23T16:05:01.805Z,8.07
2023-01-23T16:07:36.493Z,7.68
2023-01-23T16:10:20.676Z,10.60
2023-01-23T16:12:50.966Z,7.55
2023-01-23T16:15:19.118Z,7.00
2023-01-23T16:17:51.613Z,7.63
2023-01-23T16:20:45.280Z,8.50
2023-01-23T16:23:20.942Z,7.35
2023-01-23T16:25:51.396Z,6.60
2023-01-23T16:28:27.132Z,6.22
2023-01-23T16:30:53.883Z,8.43
2023-01-23T16:33:24.403Z,9.85
2023-01-23T16:35:55.521Z,8.20
2023-01-23T16:38:28.639Z,9.32
2023-01-23T16:41:01.569Z,11.75
2023-01-23T16:43:28.447Z,10.43
2023-01-23T16:45:57.767Z,12.05
2023-01-23T16:48:28.720Z,9.60
2023-01-23T16:51:10.601Z,7.57
2023-01-23T16:53:45.235Z,8.88
2023-01-23T16:56:21.594Z,9.73
2023-01-23T16:58:48.968Z,9.75
2023-01-23T17:01:20.546Z,7.50
2023-01-23T17:03:56.548Z,10.18
2023-01-23T17:06:23.268Z,9.35
2023-01-23T17:08:50.253Z,8.75
2023-01-23T17:11:24.959Z,7.78
2023-01-23T17:13:57.499Z,7.13
2023-01-23T17:16:27.697Z,10.55
2023-01-23T17:19:00.150Z,8.98
2023-01-23T17:21:36.169Z,9.00
2023-01-23T17:24:02.954Z,11.45
2023-01-23T17:26:32.085Z,10.20
2023-01-23T17:28:59.226Z,10.50
2023-01-23T17:31:28.306Z,10.48
2023-01-23T17:36:27.429Z,9.00
2023-01-23T17:39:00.038Z,12.45
2023-01-23T17:41:26.700Z,9.18
2023-01-23T17:43:53.489Z,10.70
2023-01-23T17:46:27.195Z,11.23
2023-01-23T17:48:55.710Z,10.10
2023-01-23T17:51:24.308Z,9.10
2023-01-23T17:53:53.657Z,10.90
2023-01-23T17:56:25.090Z,8.88
2023-01-23T17:58:53.911Z,8.90
2023-01-23T18:01:23.747Z,8.10
2023-01-23T18:03:53.601Z,8.60
2023-01-23T18:06:24.418Z,10.25
2023-01-23T18:08:53.141Z,8.32
2023-01-23T18:11:23.017Z,11.15
2023-01-23T18:14:23.737Z,9.57
2023-01-23T18:16:54.111Z,8.30
2023-01-23T18:19:24.895Z,9.23
2023-01-23T18:21:56.878Z,8.65
2023-01-23T18:24:33.603Z,11.07
2023-01-23T18:27:01.229Z,7.85
2023-01-23T18:29:33.088Z,11.32
2023-01-23T18:32:23.907Z,8.73
2023-01-23T18:35:06.618Z,8.48
2023-01-23T18:37:58.462Z,7.95
2023-01-23T18:41:02.415Z,9.80
2023-01-23T18:43:39.849Z,8.63
2023-01-23T18:46:20.940Z,6.65
2023-01-23T18:48:53.399Z,6.72
2023-01-23T18:51:36.611Z,8.48
2023-01-23T18:54:07.159Z,8.00
2023-01-23T18:57:12.771Z,6.75
2023-01-23T18:59:49.486Z,7.55
2023-01-23T19:02:25.221Z,7.95
2023-01-23T19:05:10.167Z,8.63
2023-01-23T19:07:37.733Z,7.15
2023-01-23T19:10:06.442Z,6.95
2023-01-23T19:12:42.023Z,8.55
2023-01-23T19:15:31.835Z,9.27
2023-01-23T19:18:40.515Z,7.60
2023-01-23T19:21:25.069Z,7.53
2023-01-23T19:24:03.118Z,6.47
2023-01-23T19:26:33.160Z,9.82
2023-01-23T19:29:20.443Z,7.38
2023-01-23T19:32:06.910Z,7.10
2023-01-23T19:34:34.403Z,6.40
2023-01-23T19:37:05.727Z,7.20
2023-01-23T19:39:34.964Z,8.48
2023-01-23T19:42:01.543Z,6.90
2023-01-23T19:44:30.141Z,7.88
2023-01-23T19:46:56.909Z,8.35
2023-01-23T19:49:25.180Z,6.60
2023-01-23T19:51:54.094Z,7.53
2023-01-23T19:54:23.760Z,8.48
2023-01-23T19:56:53.874Z,8.10
2023-01-23T19:59:20.924Z,6.72
2023-01-23T20:01:50.769Z,7.72
2023-01-23T20:04:20.817Z,7.05
2023-01-23T20:06:56.743Z,8.02
2023-01-23T20:09:23.317Z,6.53
2023-01-23T20:11:49.965Z,10.35
2023-01-23T20:14:16.555Z,6.10
2023-01-23T20:16:48.549Z,6.60
2023-01-23T20:19:16.511Z,6.95
2023-01-23T20:21:48.343Z,7.00
2023-01-23T20:24:15.751Z,7.82
2023-01-23T20:26:42.391Z,6.40
2023-01-23T20:29:12.997Z,6.55
2023-01-23T20:31:39.685Z,7.13
2023-01-23T20:34:07.392Z,8.63
2023-01-23T20:36:33.993Z,8.35
2023-01-23T20:39:03.639Z,8.38
2023-01-23T20:41:30.286Z,7.15
2023-01-23T20:43:56.928Z,6.63
2023-01-23T20:46:26.865Z,7.82
2023-01-23T20:48:53.487Z,8.55
2023-01-23T20:51:22.627Z,7.65
2023-01-23T20:53:51.376Z,7.20
2023-01-23T20:56:20.938Z,6.28
2023-01-23T20:59:09.439Z,7.45
2023-01-23T21:01:58.437Z,8.48
2023-01-23T21:04:28.536Z,6.72
2023-01-23T21:06:58.938Z,7.95
2023-01-23T21:09:26.111Z,8.40
2023-01-23T21:11:56.121Z,7.05
2023-01-23T21:14:23.864Z,6.45
2023-01-23T21:16:50.575Z,8.82
2023-01-23T21:19:19.456Z,8.70
2023-01-23T21:21:46.643Z,7.57
2023-01-23T21:24:13.424Z,7.32
2023-01-23T21:26:40.254Z,8.05
2023-01-23T21:29:10.136Z,9.25
2023-01-23T21:31:39.627Z,7.43
2023-01-23T21:34:14.077Z,6.55
2023-01-23T21:36:41.682Z,7.22
2023-01-23T21:39:13.159Z,8.88
2023-01-23T21:41:39.797Z,6.22
2023-01-23T21:44:06.428Z,7.75
2023-01-23T21:46:33.072Z,8.38
2023-01-23T21:48:59.673Z,7.25
2023-01-23T21:51:29.218Z,8.95
2023-01-23T21:53:58.699Z,9.68
2023-01-23T21:56:27.826Z,7.78
2023-01-23T21:58:56.800Z,9.65
2023-01-23T22:01:46.832Z,9.70
2023-01-23T22:04:22.648Z,8.13
2023-01-23T22:06:54.210Z,8.88
2023-01-23T22:09:25.441Z,7.50
2023-01-23T22:11:52.167Z,8.43
2023-01-23T22:14:21.333Z,7.65
2023-01-23T22:19:24.935Z,9.15
2023-01-23T22:21:57.111Z,7.95
2023-01-23T22:24:28.616Z,11.15
2023-01-23T22:26:57.712Z,10.30
2023-01-23T22:29:24.392Z,8.00
2023-01-23T22:31:52.253Z,9.80
2023-01-23T22:34:19.064Z,10.43
2023-01-23T22:36:48.022Z,8.85
2023-01-23T22:39:21.046Z,9.65
2023-01-23T22:41:50.404Z,11.93
2023-01-23T22:44:17.392Z,11.85
2023-01-23T22:46:44.411Z,10.35
2023-01-23T22:49:13.190Z,12.93
2023-01-23T22:51:43.186Z,10.70
2023-01-23T22:54:09.891Z,10.90
2023-01-23T23:01:17.502Z,14.52
2023-01-23T23:03:45.125Z,12.82
2023-01-23T23:06:16.942Z,12.93
2023-01-23T23:08:48.904Z,11.90
2023-01-23T23:11:21.434Z,15.00
2023-01-23T23:13:50.844Z,13.00
2023-01-23T23:16:25.820Z,19.17
2023-01-23T23:18:58.475Z,13.70
2023-01-23T23:21:31.701Z,18.40
2023-01-23T23:24:06.143Z,15.32
2023-01-23T23:26:33.327Z,14.52
2023-01-23T23:29:01.393Z,15.68
2023-01-23T23:31:30.974Z,17.67
2023-01-23T23:34:00.140Z,18.45
2023-01-23T23:36:30.155Z,17.27
2023-01-23T23:38:56.763Z,19.40
2023-01-23T23:41:25.916Z,27.67
2023-01-23T23:46:26.617Z,20.48
2023-01-23T23:48:55.467Z,19.02
2023-01-23T23:51:26.602Z,21.92
2023-01-23T23:53:58.100Z,17.92
2023-01-23T23:56:28.004Z,17.30
2023-01-23T23:58:59.429Z,16.67
